createdAt,value
2018-12-29T00:02:16.258Z,1.47
2018-12-29T00:05:31.524Z,1.50
2018-12-29T00:08:47.457Z,1.60
2018-12-29T00:12:03.418Z,1.60
2018-12-29T00:15:19.235Z,1.50
2018-12-29T00:18:34.647Z,1.40
2018-12-29T00:21:50.590Z,1.50
2018-12-29T00:25:06.728Z,1.50
2018-12-29T00:28:22.010Z,1.30
2018-12-29T00:31:37.528Z,1.40
2018-12-29T00:34:52.690Z,1.43
2018-12-29T00:38:07.938Z,1.33
2018-12-29T00:41:24.025Z,1.33
2018-12-29T00:44:39.907Z,1.30
2018-12-29T00:47:55.829Z,1.40
2018-12-29T00:51:11.488Z,1.60
2018-12-29T00:54:26.700Z,1.53
2018-12-29T00:57:42.407Z,1.50
2018-12-29T01:00:58.266Z,1.23
2018-12-29T01:04:13.487Z,1.43
2018-12-29T01:07:29.053Z,1.30
2018-12-29T01:10:44.794Z,1.77
2018-12-29T01:14:00.042Z,1.43
2018-12-29T01:17:15.958Z,1.47
2018-12-29T01:20:31.950Z,1.20
2018-12-29T01:23:47.877Z,1.50
2018-12-29T01:27:03.593Z,1.27
2018-12-29T01:30:19.418Z,1.40
2018-12-29T01:33:35.401Z,1.30
2018-12-29T01:36:51.458Z,1.40
2018-12-29T01:40:06.678Z,1.40
2018-12-29T01:43:22.445Z,1.33
2018-12-29T01:46:37.874Z,1.43
2018-12-29T01:49:53.666Z,1.23
2018-12-29T01:53:09.594Z,1.23
2018-12-29T01:56:25.286Z,1.40
2018-12-29T01:59:40.523Z,1.50
2018-12-29T02:02:56.335Z,1.20
2018-12-29T02:06:12.443Z,1.03
2018-12-29T02:09:28.272Z,1.30
2018-12-29T02:12:41.906Z,1.27
2018-12-29T02:16:04.586Z,1.30
2018-12-29T02:19:18.238Z,1.23
2018-12-29T02:22:33.898Z,1.23
2018-12-29T02:25:49.081Z,1.30
2018-12-29T02:29:04.901Z,1.20
2018-12-29T02:32:20.789Z,1.20
2018-12-29T02:35:36.887Z,1.23
2018-12-29T02:38:52.859Z,1.33
2018-12-29T02:42:08.709Z,1.27
2018-12-29T02:45:24.034Z,1.30
2018-12-29T02:48:40.146Z,1.30
2018-12-29T02:51:55.403Z,1.10
2018-12-29T02:55:11.154Z,1.10
2018-12-29T02:58:27.021Z,1.20
2018-12-29T03:01:42.320Z,1.17
2018-12-29T03:04:55.808Z,1.23
2018-12-29T03:08:18.498Z,1.30
2018-12-29T03:11:33.966Z,1.10
2018-12-29T03:14:49.119Z,1.17
2018-12-29T03:18:04.769Z,1.10
2018-12-29T03:21:20.826Z,1.17
2018-12-29T03:24:36.542Z,1.30
2018-12-29T03:27:52.498Z,0.90
2018-12-29T03:31:08.471Z,1.30
2018-12-29T03:34:24.266Z,1.33
2018-12-29T03:37:39.915Z,1.03
2018-12-29T03:40:55.287Z,1.23
2018-12-29T03:44:11.278Z,1.10
2018-12-29T03:47:26.887Z,0.97
2018-12-29T03:50:42.850Z,1.10
2018-12-29T03:53:58.411Z,1.10
2018-12-29T03:57:13.702Z,1.03
2018-12-29T04:00:29.761Z,1.13
2018-12-29T04:03:45.818Z,1.20
2018-12-29T04:06:59.406Z,1.20
2018-12-29T04:10:14.933Z,1.23
2018-12-29T04:13:30.954Z,1.20
2018-12-29T04:16:46.997Z,1.10
2018-12-29T04:20:03.119Z,1.20
2018-12-29T04:23:19.195Z,1.37
2018-12-29T04:26:34.375Z,1.20
2018-12-29T04:29:50.506Z,1.03
2018-12-29T04:33:06.627Z,1.00
2018-12-29T04:36:21.877Z,1.27
2018-12-29T04:39:37.043Z,1.30
2018-12-29T04:42:52.733Z,1.00
2018-12-29T04:46:08.010Z,1.10
2018-12-29T04:49:23.867Z,1.20
2018-12-29T04:52:39.838Z,1.03
2018-12-29T04:55:55.980Z,1.00
2018-12-29T04:59:11.318Z,1.20
2018-12-29T05:02:26.631Z,1.00
2018-12-29T05:05:42.449Z,0.97
2018-12-29T05:08:56.022Z,0.90
2018-12-29T05:12:18.706Z,0.90
2018-12-29T05:15:34.177Z,1.07
2018-12-29T05:18:49.423Z,0.97
2018-12-29T05:22:05.361Z,0.90
2018-12-29T05:25:21.371Z,1.00
2018-12-29T05:28:36.693Z,1.10
2018-12-29T05:31:52.486Z,1.00
2018-12-29T05:35:08.626Z,0.90
2018-12-29T05:38:24.765Z,1.00
2018-12-29T05:41:40.470Z,0.97
2018-12-29T05:44:56.390Z,1.00
2018-12-29T05:48:12.187Z,1.00
2018-12-29T05:51:27.650Z,0.80
2018-12-29T05:54:43.575Z,1.10
2018-12-29T05:57:57.143Z,1.00
2018-12-29T06:01:12.939Z,1.10
2018-12-29T06:04:28.344Z,0.90
2018-12-29T06:07:44.358Z,1.00
2018-12-29T06:10:59.646Z,1.00
2018-12-29T06:14:15.391Z,1.00
2018-12-29T06:17:30.647Z,0.90
2018-12-29T06:20:45.883Z,1.13
2018-12-29T06:24:01.834Z,1.20
2018-12-29T06:27:17.754Z,1.00
2018-12-29T06:30:33.609Z,1.13
2018-12-29T06:33:48.870Z,1.30
2018-12-29T06:37:04.102Z,0.90
2018-12-29T06:40:20.034Z,1.00
2018-12-29T06:43:36.946Z,0.80
2018-12-29T06:46:52.310Z,1.00
2018-12-29T06:50:08.199Z,1.00
2018-12-29T06:53:24.123Z,1.00
2018-12-29T06:56:40.166Z,1.20
2018-12-29T06:59:56.012Z,1.10
2018-12-29T07:03:11.758Z,1.00
2018-12-29T07:06:27.152Z,1.20
2018-12-29T07:09:42.433Z,0.97
2018-12-29T07:12:58.054Z,0.93
2018-12-29T07:16:13.603Z,0.90
2018-12-29T07:19:28.826Z,1.00
2018-12-29T07:22:44.088Z,1.13
2018-12-29T07:26:00.067Z,0.90
2018-12-29T07:29:15.926Z,0.93
2018-12-29T07:32:32.025Z,1.00
2018-12-29T07:35:47.858Z,0.80
2018-12-29T07:39:04.643Z,0.90
2018-12-29T07:42:20.500Z,0.90
2018-12-29T07:45:36.413Z,1.17
2018-12-29T07:48:52.294Z,1.03
2018-12-29T07:52:08.333Z,1.00
2018-12-29T07:55:24.422Z,1.00
2018-12-29T07:58:39.667Z,1.20
2018-12-29T08:01:55.685Z,1.00
2018-12-29T08:05:11.439Z,1.00
2018-12-29T08:08:26.878Z,0.90
2018-12-29T08:11:42.205Z,0.80
2018-12-29T08:14:57.994Z,0.90
2018-12-29T08:18:13.966Z,0.90
2018-12-29T08:21:29.925Z,1.00
2018-12-29T08:24:45.993Z,1.00
2018-12-29T08:28:01.837Z,0.90
2018-12-29T08:31:17.707Z,0.80
2018-12-29T08:34:33.785Z,0.93
2018-12-29T08:37:49.758Z,1.00
2018-12-29T08:41:05.002Z,0.90
2018-12-29T08:44:21.118Z,0.90
2018-12-29T08:47:37.170Z,0.90
2018-12-29T08:50:53.241Z,1.00
2018-12-29T08:54:09.401Z,0.90
2018-12-29T08:57:25.369Z,1.00
2018-12-29T09:00:41.568Z,0.83
2018-12-29T09:03:55.310Z,1.17
2018-12-29T09:07:10.570Z,0.97
2018-12-29T09:10:26.636Z,0.80
2018-12-29T09:13:41.897Z,0.90
2018-12-29T09:16:58.086Z,1.10
2018-12-29T09:20:13.303Z,0.93
2018-12-29T09:23:29.367Z,1.00
2018-12-29T09:26:44.539Z,1.10
2018-12-29T09:30:00.466Z,0.90
2018-12-29T09:33:15.619Z,0.87
2018-12-29T09:36:31.526Z,1.10
2018-12-29T09:39:47.414Z,0.83
2018-12-29T09:43:03.064Z,1.00
2018-12-29T09:46:18.954Z,1.20
2018-12-29T09:49:32.615Z,1.07
2018-12-29T09:52:48.685Z,0.90
2018-12-29T09:56:04.629Z,1.03
2018-12-29T09:59:20.660Z,1.10
2018-12-29T10:02:36.685Z,1.07
2018-12-29T10:05:52.790Z,1.13
2018-12-29T10:09:08.775Z,1.17
2018-12-29T10:12:24.533Z,1.13
2018-12-29T10:15:40.433Z,1.00
2018-12-29T10:18:55.671Z,1.30
2018-12-29T10:22:10.867Z,1.00
2018-12-29T10:25:26.102Z,1.10
2018-12-29T10:28:41.985Z,1.10
2018-12-29T10:31:58.015Z,1.10
2018-12-29T10:35:13.927Z,1.20
2018-12-29T10:38:29.147Z,1.23
2018-12-29T10:41:45.189Z,1.30
2018-12-29T10:44:58.798Z,1.53
2018-12-29T10:48:14.576Z,1.40
2018-12-29T10:51:29.859Z,1.63
2018-12-29T10:54:45.664Z,1.47
2018-12-29T10:58:01.011Z,1.20
2018-12-29T11:01:17.080Z,1.70
2018-12-29T11:04:32.506Z,1.67
2018-12-29T11:07:47.742Z,1.73
2018-12-29T11:11:01.403Z,1.60
2018-12-29T11:14:16.763Z,1.80
2018-12-29T11:17:32.130Z,1.60
2018-12-29T11:20:48.134Z,1.70
2018-12-29T11:24:03.437Z,1.50
2018-12-29T11:27:19.383Z,1.60
2018-12-29T11:30:34.628Z,1.60
2018-12-29T11:33:50.659Z,1.50
2018-12-29T11:37:06.007Z,1.60
2018-12-29T11:40:22.034Z,1.30
2018-12-29T11:43:38.098Z,1.47
2018-12-29T11:46:51.787Z,1.60
2018-12-29T11:50:14.473Z,1.73
2018-12-29T11:56:59.215Z,1.60
2018-12-29T12:03:51.824Z,1.60
2018-12-29T12:06:55.107Z,1.60
2018-12-29T12:10:17.873Z,1.40
2018-12-29T12:13:40.576Z,1.50
2018-12-29T12:16:56.523Z,1.50
2018-12-29T12:23:24.305Z,1.30
2018-12-29T12:26:47.059Z,1.60
2018-12-29T12:30:03.011Z,1.40
2018-12-29T12:33:18.594Z,1.60
2018-12-29T12:36:34.477Z,1.53
2018-12-29T12:39:49.819Z,1.30
2018-12-29T12:43:05.966Z,1.47
2018-12-29T12:46:21.273Z,1.40
2018-12-29T12:49:37.233Z,1.70
2018-12-29T12:52:53.153Z,1.80
2018-12-29T12:56:08.958Z,1.40
2018-12-29T12:59:24.810Z,1.53
2018-12-29T13:02:40.447Z,1.30
2018-12-29T13:05:56.324Z,1.37
2018-12-29T13:09:12.156Z,1.40
2018-12-29T13:12:28.193Z,1.50
2018-12-29T13:15:44.090Z,1.70
2018-12-29T13:18:59.837Z,2.00
2018-12-29T13:22:15.979Z,1.30
2018-12-29T13:25:32.099Z,1.50
2018-12-29T13:28:48.173Z,1.40
2018-12-29T13:32:04.154Z,1.50
2018-12-29T13:35:19.974Z,1.23
2018-12-29T13:38:35.615Z,1.37
2018-12-29T13:41:51.414Z,1.30
2018-12-29T13:45:07.171Z,1.50
2018-12-29T13:48:23.295Z,1.40
2018-12-29T13:51:39.121Z,1.20
2018-12-29T13:54:54.733Z,1.30
2018-12-29T13:58:10.702Z,1.43
2018-12-29T14:01:26.644Z,1.17
2018-12-29T14:04:42.297Z,1.30
2018-12-29T14:07:45.638Z,1.20
2018-12-29T14:11:08.409Z,1.40
2018-12-29T14:14:31.176Z,1.33
2018-12-29T14:17:53.943Z,1.33
2018-12-29T14:21:16.639Z,1.27
2018-12-29T14:24:32.265Z,1.53
2018-12-29T14:27:48.202Z,1.30
2018-12-29T14:37:52.446Z,1.20
2018-12-29T14:41:08.544Z,1.10
2018-12-29T14:44:24.502Z,1.20
2018-12-29T14:47:39.749Z,1.17
2018-12-29T14:50:55.518Z,1.03
2018-12-29T14:54:11.655Z,1.20
2018-12-29T14:57:27.570Z,1.30
2018-12-29T15:00:42.962Z,1.10
2018-12-29T15:03:59.110Z,1.27
2018-12-29T15:07:14.522Z,1.20
2018-12-29T15:10:30.732Z,1.17
2018-12-29T15:13:46.086Z,1.20
2018-12-29T15:16:59.762Z,1.40
2018-12-29T15:20:15.286Z,1.20
2018-12-29T15:23:31.396Z,1.00
2018-12-29T15:26:47.283Z,1.00
2018-12-29T15:30:03.060Z,1.13
2018-12-29T15:33:18.982Z,1.23
2018-12-29T15:36:35.070Z,1.17
2018-12-29T15:39:48.753Z,1.20
2018-12-29T15:43:11.718Z,1.20
2018-12-29T15:46:29.000Z,1.10
2018-12-29T15:49:45.110Z,1.10
2018-12-29T15:53:01.115Z,1.37
2018-12-29T15:56:16.993Z,1.20
2018-12-29T15:59:33.055Z,1.10
2018-12-29T16:02:48.878Z,1.20
2018-12-29T16:06:04.129Z,1.00
2018-12-29T16:09:19.519Z,1.00
2018-12-29T16:12:35.821Z,1.00
2018-12-29T16:15:51.994Z,1.20
2018-12-29T16:19:08.107Z,1.20
2018-12-29T16:22:23.416Z,1.03
2018-12-29T16:25:37.051Z,1.10
2018-12-29T16:28:59.855Z,1.30
2018-12-29T16:32:15.791Z,1.20
2018-12-29T16:35:31.211Z,1.40
2018-12-29T16:38:47.514Z,1.30
2018-12-29T16:42:03.715Z,1.10
2018-12-29T16:45:19.842Z,0.97
2018-12-29T16:48:35.290Z,1.20
2018-12-29T16:51:51.550Z,1.30
2018-12-29T16:55:07.774Z,1.30
2018-12-29T17:01:41.327Z,1.10
2018-12-29T17:11:54.184Z,1.17
2018-12-29T17:15:10.199Z,1.03
2018-12-29T17:18:26.122Z,1.00
2018-12-29T17:21:41.328Z,1.07
2018-12-29T17:24:57.293Z,1.23
2018-12-29T17:28:13.216Z,1.07
2018-12-29T17:31:28.447Z,1.10
2018-12-29T17:34:43.802Z,1.00
2018-12-29T17:37:57.385Z,0.97
2018-12-29T17:41:13.336Z,1.03
2018-12-29T17:44:29.334Z,1.43
2018-12-29T17:47:45.501Z,1.10
2018-12-29T17:51:01.267Z,1.13
2018-12-29T17:54:17.299Z,1.10
2018-12-29T17:57:30.886Z,1.23
2018-12-29T18:00:53.649Z,1.30
2018-12-29T18:04:09.575Z,1.00
2018-12-29T18:07:25.198Z,1.17
2018-12-29T18:10:38.913Z,1.20
2018-12-29T18:14:01.709Z,1.17
2018-12-29T18:17:17.438Z,1.07
2018-12-29T18:20:33.308Z,1.20
2018-12-29T18:23:46.934Z,1.17
2018-12-29T18:27:02.552Z,1.13
2018-12-29T18:30:18.235Z,1.27
2018-12-29T18:33:37.356Z,1.10
2018-12-29T18:36:51.055Z,1.17
2018-12-29T18:40:07.159Z,1.07
2018-12-29T18:43:22.918Z,0.90
2018-12-29T18:46:38.974Z,1.20
2018-12-29T18:49:54.769Z,1.20
2018-12-29T18:53:10.590Z,1.30
2018-12-29T18:56:26.370Z,1.10
2018-12-29T18:59:42.322Z,1.20
2018-12-29T19:02:58.055Z,1.10
2018-12-29T19:06:14.228Z,1.17
2018-12-29T19:09:30.677Z,1.33
2018-12-29T19:12:46.576Z,1.20
2018-12-29T19:16:02.220Z,1.03
2018-12-29T19:19:18.500Z,1.00
2018-12-29T19:22:33.782Z,1.10
2018-12-29T19:25:49.954Z,1.10
2018-12-29T19:29:06.163Z,1.10
2018-12-29T19:32:22.106Z,1.30
2018-12-29T19:35:37.865Z,1.20
2018-12-29T19:38:53.583Z,1.10
2018-12-29T19:42:09.462Z,1.10
2018-12-29T19:45:25.442Z,1.20
2018-12-29T19:48:41.388Z,1.10
2018-12-29T19:51:57.413Z,1.20
2018-12-29T19:55:13.221Z,1.10
2018-12-29T19:58:29.035Z,1.07
2018-12-29T20:01:45.255Z,1.20
2018-12-29T20:05:01.261Z,1.30
2018-12-29T20:08:17.322Z,1.23
2018-12-29T20:11:32.562Z,1.30
2018-12-29T20:14:48.259Z,1.20
2018-12-29T20:18:03.948Z,1.20
2018-12-29T20:21:19.370Z,1.23
2018-12-29T20:24:34.660Z,1.10
2018-12-29T20:27:49.986Z,1.13
2018-12-29T20:31:06.083Z,1.20
2018-12-29T20:34:22.187Z,1.50
2018-12-29T20:37:38.232Z,1.20
2018-12-29T20:40:54.138Z,1.30
2018-12-29T20:44:10.121Z,1.17
2018-12-29T20:47:26.306Z,1.20
2018-12-29T20:50:42.406Z,1.30
2018-12-29T20:53:58.466Z,1.07
2018-12-29T20:57:14.274Z,1.30
2018-12-29T21:00:30.193Z,1.37
2018-12-29T21:03:46.259Z,1.27
2018-12-29T21:07:01.972Z,1.20
2018-12-29T21:10:17.905Z,1.10
2018-12-29T21:13:33.590Z,1.10
2018-12-29T21:16:48.909Z,0.93
2018-12-29T21:20:05.007Z,1.13
2018-12-29T21:23:21.103Z,1.13
2018-12-29T21:26:37.145Z,1.13
2018-12-29T21:29:52.707Z,1.00
2018-12-29T21:33:08.120Z,1.17
2018-12-29T21:36:24.119Z,1.13
2018-12-29T21:39:40.220Z,1.13
2018-12-29T21:42:55.821Z,1.10
2018-12-29T21:46:11.631Z,1.20
2018-12-29T21:49:27.399Z,1.00
2018-12-29T21:52:43.367Z,1.13
2018-12-29T21:55:58.878Z,0.97
2018-12-29T21:59:14.872Z,1.10
2018-12-29T22:02:30.763Z,0.93
2018-12-29T22:05:46.754Z,0.90
2018-12-29T22:09:02.493Z,1.10
2018-12-29T22:12:18.575Z,1.00
2018-12-29T22:15:34.343Z,0.97
2018-12-29T22:18:50.102Z,1.20
2018-12-29T22:22:06.090Z,1.13
2018-12-29T22:25:21.847Z,1.00
2018-12-29T22:28:38.033Z,1.10
2018-12-29T22:31:53.813Z,1.00
2018-12-29T22:35:09.107Z,1.10
2018-12-29T22:38:24.909Z,0.90
2018-12-29T22:41:40.671Z,1.07
2018-12-29T22:44:56.748Z,0.90
2018-12-29T22:48:12.588Z,0.90
2018-12-29T22:51:28.451Z,0.97
2018-12-29T22:54:44.246Z,0.97
2018-12-29T22:58:00.274Z,1.00
2018-12-29T23:01:16.521Z,0.93
2018-12-29T23:04:32.550Z,0.90
2018-12-29T23:07:48.395Z,0.93
2018-12-29T23:11:04.446Z,0.80
2018-12-29T23:14:20.341Z,0.87
2018-12-29T23:17:36.398Z,1.00
2018-12-29T23:20:52.590Z,0.90
2018-12-29T23:23:55.926Z,1.03
2018-12-29T23:27:18.698Z,0.87
2018-12-29T23:30:33.984Z,0.93
2018-12-29T23:33:47.623Z,0.90
2018-12-29T23:37:10.568Z,0.80
2018-12-29T23:40:33.268Z,1.00
2018-12-29T23:43:49.286Z,1.00
2018-12-29T23:47:05.363Z,1.00
2018-12-29T23:50:21.166Z,0.80
2018-12-29T23:53:37.094Z,1.00
2018-12-29T23:56:52.825Z,0.80
